Szafir — 5BFC3 — position and weather

sailwx.info

Track history (hours):
 
Tides and Currents Weather Stations Pressure Air Temp Water Temp Dewpoint Dewpoint Depression Visibility Wind Speed Wind Dir Waves Ship Positions

Szafir

Last reported at 2017-Jan-19 12:34 UTC. Time now 2017-Jan-19 12:55 UTC.
Position N 54°35' E 011°10'.

Length 113 m; draft 7.2 m.

Type: Cargo ship. MMSI: 209366000.

Date/timePositionNaut miles runAvg speedWind from/ knotsBaromVisibWave heightAir tempDewpointWater temp
2017-Jan-19 12:34N 54°35' E 011°10'1212.3
2017-Jan-19 11:34N 54°42' E 010°53'1212.5
2017-Jan-19 10:34N 54°54' E 010°53'1111.3
2017-Jan-19 09:34N 55°05' E 011°02'1211.8
2017-Jan-19 08:33N 55°16' E 011°04'11010.7
2017-Jan-18 22:19N 57°04' E 011°39'912.5
2017-Jan-18 21:33N 57°13' E 011°32'1212.4
2017-Jan-18 20:33N 57°25' E 011°25'1312.6
2017-Jan-18 19:34N 57°34' E 011°10'1312.9
2017-Jan-18 18:34N 57°43' E 010°52'1313.0
2017-Jan-18 17:33N 57°46' E 010°28'1513.8
2017-Jan-18 16:29N 57°41' E 010°02'1413.7
2017-Jan-18 15:30N 57°35' E 009°40'6513.1
2017-Jan-18 10:33N 56°54' E 008°07'1313.2
2017-Jan-18 09:32N 56°43' E 007°54'22412.4
2017-Jan-17 15:25N 53°27' E 004°43'2211.6
2017-Jan-17 13:33N 53°07' E 004°28'1211.6
2017-Jan-17 12:30N 52°57' E 004°19'1111.6
2017-Jan-17 11:34N 52°47' E 004°11'1211.7
2017-Jan-17 10:32N 52°38' E 003°58'1312.3
2017-Jan-17 09:28N 52°29' E 003°42'1212.8
2017-Jan-17 08:33N 52°21' E 003°28'1313.2
2017-Jan-17 07:33N 52°11' E 003°13'2913.7
2017-Jan-17 05:24N 51°49' E 002°42'1314.1
2017-Jan-17 04:27N 51°39' E 002°28'1314.1
2017-Jan-17 03:33N 51°29' E 002°16'1313.1
2017-Jan-17 02:33N 51°17' E 002°06'1212.0
2017-Jan-17 01:33N 51°09' E 001°51'1211.6
2017-Jan-17 00:33N 51°01' E 001°38'70 9.9
2017-Jan-16 17:33N 50°22' E 000°08'1210.4
2017-Jan-16 16:23N 50°19' W 000°11'3511.1
2017-Jan-16 13:12N 50°08' W 001°04'913.8
2017-Jan-16 12:33N 50°06' W 001°17'1514.7
2017-Jan-16 11:34N 50°02' W 001°39'1615.7
2017-Jan-16 10:34N 49°58' W 002°03'13512.0
2017-Jan-15 23:20N 48°57' W 005°08'1910.9
2017-Jan-15 21:33N 48°48' W 005°33'  
2017-Jan-11 09:33N 30°13' W 015°04'1110.9
2017-Jan-11 08:32N 30°03' W 015°08'1010.7
2017-Jan-11 07:33N 29°53' W 015°12'5410.4
2017-Jan-11 02:21N 29°02' W 015°32'910.6
2017-Jan-11 01:31N 28°53' W 015°35'1111.0
2017-Jan-11 00:33N 28°43' W 015°39'1111.1
2017-Jan-10 23:33N 28°33' W 015°44'1111.4
2017-Jan-10 22:33N 28°24' W 015°52'4410.9
2017-Jan-10 18:33N 27°47' W 016°18'23111.3
2017-Jan-09 22:04N 24°02' W 017°16'  
Track history (hours):
 
Tides and Currents Weather Stations Pressure Air Temp Water Temp Dewpoint Dewpoint Depression Visibility Wind Speed Wind Dir Waves Ship Positions

Szafir

Last reported at 2017-Jan-19 12:34 UTC. Time now 2017-Jan-19 12:55 UTC.
Position N 54°35' E 011°10'.

Length 113 m; draft 7.2 m.

Type: Cargo ship. MMSI: 209366000.

Date/timePositionNaut miles runAvg speedWind from/ knotsBaromVisibWave heightAir tempDewpointWater temp
2017-Jan-19 12:34N 54°35' E 011°10'1212.3
2017-Jan-19 11:34N 54°42' E 010°53'1212.5
2017-Jan-19 10:34N 54°54' E 010°53'1111.3
2017-Jan-19 09:34N 55°05' E 011°02'1211.8
2017-Jan-19 08:33N 55°16' E 011°04'11010.7
2017-Jan-18 22:19N 57°04' E 011°39'912.5
2017-Jan-18 21:33N 57°13' E 011°32'1212.4
2017-Jan-18 20:33N 57°25' E 011°25'1312.6
2017-Jan-18 19:34N 57°34' E 011°10'1312.9
2017-Jan-18 18:34N 57°43' E 010°52'1313.0
2017-Jan-18 17:33N 57°46' E 010°28'1513.8
2017-Jan-18 16:29N 57°41' E 010°02'1413.7
2017-Jan-18 15:30N 57°35' E 009°40'6513.1
2017-Jan-18 10:33N 56°54' E 008°07'1313.2
2017-Jan-18 09:32N 56°43' E 007°54'22412.4
2017-Jan-17 15:25N 53°27' E 004°43'2211.6
2017-Jan-17 13:33N 53°07' E 004°28'1211.6
2017-Jan-17 12:30N 52°57' E 004°19'1111.6
2017-Jan-17 11:34N 52°47' E 004°11'1211.7
2017-Jan-17 10:32N 52°38' E 003°58'1312.3
2017-Jan-17 09:28N 52°29' E 003°42'1212.8
2017-Jan-17 08:33N 52°21' E 003°28'1313.2
2017-Jan-17 07:33N 52°11' E 003°13'2913.7
2017-Jan-17 05:24N 51°49' E 002°42'1314.1
2017-Jan-17 04:27N 51°39' E 002°28'1314.1
2017-Jan-17 03:33N 51°29' E 002°16'1313.1
2017-Jan-17 02:33N 51°17' E 002°06'1212.0
2017-Jan-17 01:33N 51°09' E 001°51'1211.6
2017-Jan-17 00:33N 51°01' E 001°38'70 9.9
2017-Jan-16 17:33N 50°22' E 000°08'1210.4
2017-Jan-16 16:23N 50°19' W 000°11'3511.1
2017-Jan-16 13:12N 50°08' W 001°04'913.8
2017-Jan-16 12:33N 50°06' W 001°17'1514.7
2017-Jan-16 11:34N 50°02' W 001°39'1615.7
2017-Jan-16 10:34N 49°58' W 002°03'13512.0
2017-Jan-15 23:20N 48°57' W 005°08'1910.9
2017-Jan-15 21:33N 48°48' W 005°33'  
2017-Jan-11 09:33N 30°13' W 015°04'1110.9
2017-Jan-11 08:32N 30°03' W 015°08'1010.7
2017-Jan-11 07:33N 29°53' W 015°12'5410.4
2017-Jan-11 02:21N 29°02' W 015°32'910.6
2017-Jan-11 01:31N 28°53' W 015°35'1111.0
2017-Jan-11 00:33N 28°43' W 015°39'1111.1
2017-Jan-10 23:33N 28°33' W 015°44'1111.4
2017-Jan-10 22:33N 28°24' W 015°52'4410.9
2017-Jan-10 18:33N 27°47' W 016°18'23111.3
2017-Jan-09 22:04N 24°02' W 017°16'  

Dump ship's entire track history